Main page
METAR-TAF:

METAR-TAF

Airports :

Kulob Airport

Kulob, Tajikistan

latitude: 37-59-18N, longitude: 069-48-18E, elevation: 699 m

Current weather observation

The report was made 30 minutes ago, at 19:30 UTC
Wind 14 kt from the North
Temperature 24°C
Humidity 38%
Pressure 1006 hPa
Visibility 10 km or more

METAR: UTDK 231930Z 01007MPS 9999 NSC 24/09 Q1006 R01/09//70 RMK QFE698/0930

Time: 01:00 (20:00 UTC)

Forecast

The report was made 2 hours and 0 minutes ago, at 18:00 UTC
Forecast valid from 23 at 19 UTC to 24 at 04 UTC
Wind 10 kt from the North/Northeast
Visibility: 6000 m
Few clouds at a height of 6600 ft, Cumulonimbus.
Scattered clouds at a height of 12000 ft
Temporary
from 23 at 19 UTC to 24 at 04 UTC
Wind 4 kt from variable directions

TAF: UTDK 231800Z 2319/2404 03005MPS 6000 FEW066CB SCT120 TEMPO 2319/2404 VRB02MPS

Weather observations and forecasts of more than 4000 airports (METAR and TAF reports).

The available stations are represented by yellow and red dots on the map.

Hover mouse over dot to see the name of the station.

Then click to see weather observations and forecasts.

To change the map : click on the green buttons with a black cross to zoom in, on the green button with a dash to zoom out, or on the green arrows for adjacent maps.


METAR-TAF: